Time;durP1;ratioP1;P1;durP2;ratioP2;P2;SDS_P1;SDS_P2;PMS_P1;PMS_P2;Temp;Humidity;BMP_temperature;BMP_pressure;BME280_temperature;BME280_humidity;BME280_pressure;Samples;Min_cycle;Max_cycle;Signal;HPM_P1;HPM_P2
2022/07/05 00:02:22;;;;;;;14.05;10.57;;;;;;;;;;8333673;28;20050;-93
2022/07/05 00:06:25;;;;;;;13.32;9.98;;;;;;;;;;8333037;28;20120;-90
2022/07/05 00:10:28;;;;;;;14.63;10.50;;;;;;;;;;8333461;28;20049;-92
2022/07/05 00:14:30;;;;;;;11.85;9.65;;;;;;;;;;8333649;28;20045;-92
2022/07/05 00:18:35;;;;;;;12.02;9.40;;;;;;;;;;8333299;28;20041;-92
2022/07/05 00:22:37;;;;;;;12.60;10.35;;;;;;;;;;8333354;28;20045;-89
2022/07/05 00:26:40;;;;;;;11.95;10.20;;;;;;;;;;8332840;28;20045;-90
2022/07/05 00:30:43;;;;;;;10.98;9.23;;;;;;;;;;8332760;28;20052;-89
2022/07/05 00:34:47;;;;;;;12.52;9.85;;;;;;;;;;8332688;28;20045;-88
2022/07/05 00:38:49;;;;;;;11.10;9.88;;;;;;;;;;8332610;28;20045;-92
2022/07/05 00:42:52;;;;;;;10.90;9.70;;;;;;;;;;8332484;28;20042;-91
2022/07/05 00:46:54;;;;;;;12.63;9.55;;;;;;;;;;8332674;28;20045;-92
2022/07/05 00:50:59;;;;;;;11.23;9.60;;;;;;;;;;8332178;28;20053;-90
2022/07/05 00:55:01;;;;;;;10.30;8.80;;;;;;;;;;8332258;28;20095;-89
2022/07/05 00:59:04;;;;;;;14.25;9.45;;;;;;;;;;8331826;28;20406;-88
2022/07/05 01:03:06;;;;;;;11.23;9.60;;;;;;;;;;8331522;28;20061;-88
2022/07/05 01:07:10;;;;;;;11.52;9.35;;;;;;;;;;8331563;28;20075;-88
2022/07/05 01:11:15;;;;;;;13.05;9.50;;;;;;;;;;8331442;28;20076;-87
2022/07/05 01:15:18;;;;;;;11.55;9.57;;;;;;;;;;8330475;28;20041;-90
2022/07/05 01:19:21;;;;;;;10.80;9.27;;;;;;;;;;8329514;28;20118;-88
2022/07/05 01:23:28;;;;;;;10.30;9.20;;;;;;;;;;8328407;28;20077;-87
2022/07/05 01:27:30;;;;;;;10.55;9.30;;;;;;;;;;8327292;28;20067;-88
2022/07/05 01:31:33;;;;;;;11.05;8.68;;;;;;;;;;8330129;28;20731;-89
2022/07/05 01:35:37;;;;;;;12.00;8.75;;;;;;;;;;8326011;28;20054;-89
2022/07/05 01:39:41;;;;;;;14.82;8.80;;;;;;;;;;8329483;28;20041;-88
2022/07/05 01:43:44;;;;;;;11.75;8.73;;;;;;;;;;8329496;28;20088;-93
2022/07/05 01:47:48;;;;;;;10.95;9.00;;;;;;;;;;8329719;28;20466;-88
2022/07/05 01:51:55;;;;;;;10.73;9.27;;;;;;;;;;8330080;28;20053;-87
2022/07/05 01:56:00;;;;;;;13.27;9.80;;;;;;;;;;8332820;28;20041;-89
2022/07/05 02:00:03;;;;;;;10.82;8.85;;;;;;;;;;8339365;28;20044;-88
2022/07/05 02:04:07;;;;;;;10.38;9.02;;;;;;;;;;8335336;28;20053;-89
2022/07/05 02:08:10;;;;;;;13.52;9.07;;;;;;;;;;8336618;28;20120;-89
2022/07/05 02:12:14;;;;;;;60.97;34.72;;;;;;;;;;8342554;28;20049;-89
2022/07/05 02:16:17;;;;;;;70.82;43.08;;;;;;;;;;8342174;28;20041;-87
2022/07/05 02:20:20;;;;;;;13.93;9.68;;;;;;;;;;8336759;28;20503;-88
2022/07/05 02:24:22;;;;;;;9.93;8.52;;;;;;;;;;8335917;28;20186;-88
2022/07/05 02:28:27;;;;;;;10.60;8.48;;;;;;;;;;8334610;28;20271;-92
2022/07/05 02:32:31;;;;;;;11.60;8.65;;;;;;;;;;8334145;28;20168;-88
2022/07/05 02:36:34;;;;;;;15.23;9.45;;;;;;;;;;8335817;28;20098;-88
2022/07/05 02:40:36;;;;;;;12.00;9.30;;;;;;;;;;8336067;28;20045;-88
2022/07/05 02:44:40;;;;;;;11.45;9.75;;;;;;;;;;8336072;28;20085;-90
2022/07/05 02:48:43;;;;;;;14.25;11.60;;;;;;;;;;8335721;28;20045;-89
2022/07/05 02:52:46;;;;;;;16.63;13.60;;;;;;;;;;8335687;28;20508;-87
2022/07/05 02:56:48;;;;;;;16.60;12.30;;;;;;;;;;8335996;28;20480;-88
2022/07/05 03:00:53;;;;;;;14.70;11.50;;;;;;;;;;8329188;28;20051;-88
2022/07/05 03:04:56;;;;;;;18.98;13.05;;;;;;;;;;8335083;28;20099;-89
2022/07/05 03:08:59;;;;;;;17.10;13.27;;;;;;;;;;8335525;28;20485;-89
2022/07/05 03:13:01;;;;;;;16.52;12.48;;;;;;;;;;8335165;28;20045;-88
2022/07/05 03:17:06;;;;;;;17.83;13.40;;;;;;;;;;8333953;28;20045;-89
2022/07/05 03:21:08;;;;;;;16.50;13.60;;;;;;;;;;8335071;28;20037;-88
2022/07/05 03:25:11;;;;;;;17.52;13.25;;;;;;;;;;8334698;28;20045;-89
2022/07/05 03:29:13;;;;;;;15.45;12.90;;;;;;;;;;8334589;28;20486;-91
2022/07/05 03:33:18;;;;;;;18.63;13.30;;;;;;;;;;8334615;28;20167;-88
2022/07/05 03:37:20;;;;;;;17.50;12.70;;;;;;;;;;8334431;28;20045;-89
2022/07/05 03:41:23;;;;;;;15.73;12.60;;;;;;;;;;8334589;28;20490;-90
2022/07/05 03:45:26;;;;;;;19.48;13.45;;;;;;;;;;8334262;28;20494;-90
2022/07/05 03:49:30;;;;;;;17.48;12.85;;;;;;;;;;8333850;28;20045;-90
2022/07/05 03:53:33;;;;;;;14.68;11.82;;;;;;;;;;8332999;28;20061;-87
2022/07/05 03:57:36;;;;;;;16.40;11.43;;;;;;;;;;8333824;28;20033;-89
2022/07/05 04:01:39;;;;;;;15.63;10.70;;;;;;;;;;8333593;28;20045;-89
2022/07/05 04:05:43;;;;;;;10.70;9.02;;;;;;;;;;8334125;28;20444;-89
2022/07/05 04:09:46;;;;;;;11.38;9.27;;;;;;;;;;8333184;28;20049;-90
2022/07/05 04:13:48;;;;;;;13.18;9.27;;;;;;;;;;8333311;28;20229;-89
2022/07/05 04:17:53;;;;;;;12.35;8.38;;;;;;;;;;8326839;28;20046;-91
2022/07/05 04:21:57;;;;;;;9.07;7.63;;;;;;;;;;8332958;28;20041;-90
2022/07/05 04:26:02;;;;;;;10.70;8.65;;;;;;;;;;8332688;28;20053;-90
2022/07/05 04:30:05;;;;;;;11.82;9.52;;;;;;;;;;8332946;28;20401;-90
2022/07/05 04:34:08;;;;;;;11.65;7.35;;;;;;;;;;8332096;28;20048;-90
2022/07/05 04:38:12;;;;;;;8.73;6.72;;;;;;;;;;8332368;28;20050;-90
2022/07/05 04:42:14;;;;;;;8.55;6.38;;;;;;;;;;8332258;28;20124;-90
2022/07/05 04:46:17;;;;;;;10.38;6.75;;;;;;;;;;8331990;28;20123;-90
2022/07/05 04:50:20;;;;;;;9.50;6.00;;;;;;;;;;8331825;28;20045;-90
2022/07/05 04:54:25;;;;;;;8.00;6.32;;;;;;;;;;8331752;28;20069;-90
2022/07/05 04:58:27;;;;;;;9.45;6.72;;;;;;;;;;8331753;28;20116;-90
2022/07/05 05:02:30;;;;;;;23.02;14.15;;;;;;;;;;8331596;28;20065;-90
2022/07/05 05:06:33;;;;;;;17.80;11.50;;;;;;;;;;8331319;28;20041;-91
2022/07/05 05:10:37;;;;;;;10.80;7.63;;;;;;;;;;8331244;28;20561;-90
2022/07/05 05:14:40;;;;;;;7.38;5.70;;;;;;;;;;8330117;28;20065;-91
2022/07/05 05:18:43;;;;;;;8.50;5.90;;;;;;;;;;8328800;28;20188;-91
2022/07/05 05:22:46;;;;;;;7.55;6.00;;;;;;;;;;8325869;28;20064;-91
2022/07/05 05:26:50;;;;;;;7.50;5.93;;;;;;;;;;8325311;28;20060;-91
2022/07/05 05:30:53;;;;;;;8.70;5.80;;;;;;;;;;8330648;28;20456;-89
2022/07/05 05:34:56;;;;;;;7.05;5.55;;;;;;;;;;8330895;28;20049;-91
2022/07/05 05:38:58;;;;;;;7.35;5.30;;;;;;;;;;8329450;28;20405;-91
2022/07/05 05:43:02;;;;;;;6.35;5.20;;;;;;;;;;8330409;28;20041;-89
2022/07/05 05:47:05;;;;;;;7.32;5.28;;;;;;;;;;8329579;28;20080;-89
2022/07/05 05:51:08;;;;;;;6.55;4.72;;;;;;;;;;8328735;28;20159;-88
2022/07/05 05:55:11;;;;;;;8.80;4.90;;;;;;;;;;8330487;28;20405;-92
2022/07/05 05:59:16;;;;;;;4.78;4.13;;;;;;;;;;8331713;28;20045;-93
2022/07/05 06:03:33;;;;;;;5.15;4.25;;;;;;;;;;8327183;28;20243;-90
2022/07/05 06:07:50;;;;;;;8.00;4.82;;;;;;;;;;8332618;28;20057;-92
2022/07/05 06:11:53;;;;;;;7.65;4.47;;;;;;;;;;8331290;28;20076;-92
2022/07/05 06:15:59;;;;;;;6.70;4.50;;;;;;;;;;8330197;28;20556;-91
2022/07/05 06:20:14;;;;;;;16.40;8.95;;;;;;;;;;8335918;28;20512;-96
2022/07/05 06:24:18;;;;;;;8.75;4.40;;;;;;;;;;8337359;28;20051;-92
2022/07/05 06:28:20;;;;;;;8.00;4.38;;;;;;;;;;8332479;28;20124;-93
2022/07/05 06:32:25;;;;;;;8.45;4.47;;;;;;;;;;8330640;28;20037;-92
2022/07/05 06:36:41;;;;;;;11.25;4.68;;;;;;;;;;8336004;28;20037;-91
2022/07/05 06:40:45;;;;;;;15.93;10.52;;;;;;;;;;8327989;28;20508;-88
2022/07/05 06:44:49;;;;;;;19.20;6.75;;;;;;;;;;8312765;28;20065;-88
2022/07/05 06:48:55;;;;;;;7.97;4.80;;;;;;;;;;8324230;28;20081;-88
2022/07/05 06:52:59;;;;;;;8.40;4.43;;;;;;;;;;8324232;28;20041;-87
2022/07/05 06:57:05;;;;;;;12.45;5.10;;;;;;;;;;8326262;28;20060;-88
2022/07/05 07:01:08;;;;;;;13.88;6.03;;;;;;;;;;8325374;28;20437;-88
2022/07/05 07:05:12;;;;;;;9.85;4.47;;;;;;;;;;8330301;28;20477;-87
2022/07/05 07:09:22;;;;;;;6.70;4.88;;;;;;;;;;8327065;28;20072;-88
2022/07/05 07:13:25;;;;;;;9.45;4.85;;;;;;;;;;8330015;28;20512;-87
2022/07/05 07:17:28;;;;;;;13.50;8.43;;;;;;;;;;8324886;28;20509;-93
2022/07/05 07:21:36;;;;;;;11.05;5.88;;;;;;;;;;8326590;28;20278;-87
2022/07/05 07:25:39;;;;;;;19.00;7.50;;;;;;;;;;8328775;28;20079;-87
2022/07/05 07:29:42;;;;;;;8.93;5.20;;;;;;;;;;8328694;28;20053;-88
2022/07/05 07:33:45;;;;;;;9.00;5.32;;;;;;;;;;8329256;28;20041;-87
2022/07/05 07:37:49;;;;;;;11.52;5.80;;;;;;;;;;8326967;28;20124;-87
2022/07/05 07:41:54;;;;;;;10.38;7.57;;;;;;;;;;8325402;28;20083;-89
2022/07/05 07:45:57;;;;;;;7.22;4.63;;;;;;;;;;8326787;28;20041;-88
2022/07/05 07:50:00;;;;;;;9.07;4.75;;;;;;;;;;8332336;28;20056;-88
2022/07/05 07:54:05;;;;;;;16.13;7.43;;;;;;;;;;8327466;28;20056;-88
2022/07/05 07:58:08;;;;;;;5.32;3.95;;;;;;;;;;8337659;28;20124;-88
2022/07/05 08:02:14;;;;;;;5.28;3.85;;;;;;;;;;8333770;28;20073;-86
2022/07/05 08:06:17;;;;;;;99.70;55.20;;;;;;;;;;8340473;28;20053;-87
2022/07/05 08:10:22;;;;;;;27.30;16.20;;;;;;;;;;8335480;28;20049;-89
2022/07/05 08:14:25;;;;;;;5.47;3.80;;;;;;;;;;8329187;28;20048;-88
2022/07/05 08:22:48;;;;;;;6.68;4.15;;;;;;;;;;8330920;28;20410;-88
2022/07/05 08:26:52;;;;;;;4.90;3.85;;;;;;;;;;8332789;28;20096;-90
2022/07/05 08:30:55;;;;;;;5.30;4.30;;;;;;;;;;8331195;28;20048;-89
2022/07/05 08:34:59;;;;;;;9.07;6.28;;;;;;;;;;8332504;28;20038;-87
2022/07/05 08:39:02;;;;;;;7.78;5.82;;;;;;;;;;8332233;28;20110;-88
2022/07/05 08:43:07;;;;;;;4.97;3.70;;;;;;;;;;8332197;28;20037;-89
2022/07/05 08:47:12;;;;;;;4.50;3.70;;;;;;;;;;8330904;28;20422;-89
2022/07/05 08:51:17;;;;;;;4.93;3.50;;;;;;;;;;8329549;28;20042;-90
2022/07/05 08:55:21;;;;;;;5.28;3.67;;;;;;;;;;8323148;28;20045;-89
2022/07/05 08:59:26;;;;;;;5.18;3.70;;;;;;;;;;8321623;28;20049;-88
2022/07/05 09:03:34;;;;;;;7.13;4.40;;;;;;;;;;8326652;28;20568;-89
2022/07/05 09:07:39;;;;;;;8.48;4.43;;;;;;;;;;8326827;28;20049;-90
2022/07/05 09:11:43;;;;;;;8.88;3.90;;;;;;;;;;8325276;28;20057;-92
2022/07/05 09:15:47;;;;;;;5.88;4.00;;;;;;;;;;8326939;28;20076;-89
2022/07/05 09:20:08;;;;;;;6.03;4.00;;;;;;;;;;8326036;28;20049;-89
2022/07/05 09:24:28;;;;;;;5.97;3.60;;;;;;;;;;8320980;28;20564;-89
2022/07/05 09:28:40;;;;;;;8.60;4.20;;;;;;;;;;8323135;28;20392;-89
2022/07/05 09:33:09;;;;;;;5.47;4.10;;;;;;;;;;8325749;28;20409;-90
2022/07/05 09:37:21;;;;;;;6.47;4.40;;;;;;;;;;8321268;28;20046;-89
2022/07/05 09:41:31;;;;;;;8.20;4.30;;;;;;;;;;8325451;28;20041;-89
2022/07/05 09:46:07;;;;;;;8.20;4.63;;;;;;;;;;8323674;28;20055;-92
2022/07/05 09:50:35;;;;;;;6.38;4.72;;;;;;;;;;8319442;28;20492;-88
2022/07/05 09:55:11;;;;;;;6.07;4.60;;;;;;;;;;8324567;28;20053;-90
2022/07/05 09:59:35;;;;;;;6.50;4.63;;;;;;;;;;8324611;28;20064;-90
2022/07/05 10:03:58;;;;;;;6.30;4.82;;;;;;;;;;8324295;28;20567;-91
2022/07/05 10:08:22;;;;;;;7.28;4.97;;;;;;;;;;8324537;28;20045;-90
2022/07/05 10:12:32;;;;;;;8.18;5.32;;;;;;;;;;8324727;28;20130;-88
2022/07/05 10:16:40;;;;;;;6.55;5.63;;;;;;;;;;8325237;28;20072;-88
2022/07/05 10:20:47;;;;;;;6.32;4.85;;;;;;;;;;8325273;28;20054;-89
2022/07/05 10:25:14;;;;;;;9.18;5.53;;;;;;;;;;8315296;28;20537;-87
2022/07/05 10:29:42;;;;;;;11.63;6.30;;;;;;;;;;8325145;28;20478;-88
2022/07/05 10:33:55;;;;;;;7.15;6.18;;;;;;;;;;8323712;28;20456;-88
2022/07/05 10:38:05;;;;;;;9.20;6.80;;;;;;;;;;8326267;28;20057;-89
2022/07/05 10:42:17;;;;;;;9.35;7.28;;;;;;;;;;8333832;28;20045;-87
2022/07/05 10:46:34;;;;;;;8.57;7.32;;;;;;;;;;8331187;28;20068;-88
2022/07/05 10:50:49;;;;;;;11.80;8.07;;;;;;;;;;8331160;28;20071;-90
2022/07/05 10:55:24;;;;;;;7.28;6.32;;;;;;;;;;8331041;28;20045;-89
2022/07/05 11:00:00;;;;;;;9.27;6.78;;;;;;;;;;8330574;28;20076;-91
2022/07/05 11:04:34;;;;;;;9.50;7.22;;;;;;;;;;8329435;28;20178;-89
2022/07/05 11:09:17;;;;;;;8.70;6.55;;;;;;;;;;8327451;28;20053;-89
2022/07/05 11:13:40;;;;;;;9.38;6.78;;;;;;;;;;8330045;28;20156;-88
2022/07/05 11:17:47;;;;;;;9.15;6.63;;;;;;;;;;8327909;28;20052;-88
2022/07/05 11:22:11;;;;;;;9.27;6.95;;;;;;;;;;8329411;28;20045;-91
2022/07/05 11:26:18;;;;;;;9.20;7.10;;;;;;;;;;8330033;28;20075;-90
2022/07/05 11:31:04;;;;;;;9.77;6.70;;;;;;;;;;8329558;28;20053;-89
2022/07/05 11:35:32;;;;;;;8.55;7.35;;;;;;;;;;8329364;28;20056;-93
2022/07/05 11:39:35;;;;;;;8.80;7.65;;;;;;;;;;8324666;28;20053;-88
2022/07/05 11:43:43;;;;;;;8.77;7.40;;;;;;;;;;8328049;28;20204;-88
2022/07/05 11:47:47;;;;;;;8.85;7.22;;;;;;;;;;8329090;28;20073;-88
2022/07/05 11:52:00;;;;;;;10.85;6.80;;;;;;;;;;8328701;28;20444;-87
2022/07/05 11:56:08;;;;;;;8.10;6.65;;;;;;;;;;8328875;28;20560;-87
2022/07/05 12:00:14;;;;;;;8.50;6.28;;;;;;;;;;8329416;28;20095;-88
2022/07/05 12:04:31;;;;;;;10.43;6.75;;;;;;;;;;8328141;28;20096;-88
2022/07/05 12:08:36;;;;;;;7.47;6.55;;;;;;;;;;8323884;28;20048;-88
2022/07/05 12:12:47;;;;;;;11.68;7.53;;;;;;;;;;8327319;28;20051;-88
2022/07/05 12:16:51;;;;;;;9.93;6.43;;;;;;;;;;8319727;28;20041;-87
2022/07/05 12:20:55;;;;;;;8.70;6.20;;;;;;;;;;8328264;28;20501;-91
2022/07/05 12:25:09;;;;;;;8.35;7.38;;;;;;;;;;8325308;28;20102;-88
2022/07/05 12:29:18;;;;;;;9.77;7.13;;;;;;;;;;8327777;28;20053;-89
2022/07/05 12:33:40;;;;;;;8.82;7.63;;;;;;;;;;8328125;28;20049;-92
2022/07/05 12:37:46;;;;;;;8.90;7.05;;;;;;;;;;8326139;28;20452;-90
2022/07/05 12:41:57;;;;;;;8.70;7.80;;;;;;;;;;8319386;28;20049;-89
2022/07/05 12:46:04;;;;;;;8.95;7.05;;;;;;;;;;8327731;28;20045;-90
2022/07/05 12:50:09;;;;;;;8.75;7.85;;;;;;;;;;8319853;28;20050;-87
2022/07/05 12:58:55;;;;;;;9.52;7.35;;;;;;;;;;8327114;28;20050;-87
2022/07/05 13:02:58;;;;;;;10.02;7.30;;;;;;;;;;8326616;28;20069;-89
2022/07/05 13:07:03;;;;;;;9.27;7.80;;;;;;;;;;8327813;28;20045;-89
2022/07/05 13:11:06;;;;;;;8.40;6.88;;;;;;;;;;8330254;28;20067;-90
2022/07/05 13:15:12;;;;;;;11.75;7.70;;;;;;;;;;8330636;28;20052;-87
2022/07/05 13:19:15;;;;;;;9.85;8.85;;;;;;;;;;8332107;28;20095;-88
2022/07/05 13:23:18;;;;;;;9.77;7.80;;;;;;;;;;8331000;28;20072;-90
2022/07/05 13:27:20;;;;;;;9.70;8.27;;;;;;;;;;8330875;28;20056;-87
2022/07/05 13:31:28;;;;;;;11.65;8.75;;;;;;;;;;8329208;28;20089;-87
2022/07/05 13:35:31;;;;;;;11.55;8.48;;;;;;;;;;8330307;28;20517;-88
2022/07/05 13:39:34;;;;;;;9.85;8.07;;;;;;;;;;8327363;28;20049;-87
2022/07/05 13:43:37;;;;;;;17.35;11.68;;;;;;;;;;8326732;28;20111;-93
2022/07/05 13:47:45;;;;;;;9.95;8.77;;;;;;;;;;8331825;28;20053;-87
2022/07/05 13:51:49;;;;;;;12.35;9.27;;;;;;;;;;8333569;28;20049;-91
2022/07/05 13:56:02;;;;;;;11.13;9.45;;;;;;;;;;8340220;28;20052;-95
2022/07/05 14:00:08;;;;;;;13.00;10.68;;;;;;;;;;8319204;28;20046;-95
2022/07/05 14:04:12;;;;;;;12.40;11.10;;;;;;;;;;8337730;28;20061;-96
2022/07/05 14:08:21;;;;;;;15.05;12.45;;;;;;;;;;8334143;28;20463;-95
2022/07/05 14:12:25;;;;;;;13.80;11.18;;;;;;;;;;8335749;28;20047;-96
2022/07/05 14:16:30;;;;;;;14.52;12.57;;;;;;;;;;8339639;28;20042;-95
2022/07/05 14:20:46;;;;;;;13.88;12.38;;;;;;;;;;8343895;28;20048;-95
2022/07/05 14:25:01;;;;;;;15.23;13.20;;;;;;;;;;8345717;28;20041;-95
2022/07/05 14:34:46;;;;;;;13.23;11.88;;;;;;;;;;8244307;28;20082;-95
2022/07/05 14:39:43;;;;;;;15.05;11.55;;;;;;;;;;8243519;28;20043;-93
2022/07/05 14:43:53;;;;;;;;;;;;;;;;;;8173070;29;20083;-93
2022/07/05 14:48:10;;;;;;;16.48;13.13;;;;;;;;;;8166080;29;19947;-95
2022/07/05 14:52:16;;;;;;;16.55;14.10;;;;;;;;;;8186297;29;20048;-95
2022/07/05 14:56:22;;;;;;;24.15;18.35;;;;;;;;;;8164971;29;20145;-96
2022/07/05 15:00:35;;;;;;;15.95;13.90;;;;;;;;;;8151770;29;20060;-91
2022/07/05 15:04:42;;;;;;;29.15;15.25;;;;;;;;;;8169521;29;20198;-89
2022/07/05 15:08:53;;;;;;;12.25;10.65;;;;;;;;;;8231260;28;20088;-91
2022/07/05 15:12:59;;;;;;;;;;;;;;;;;;8275118;28;20108;-93
2022/07/05 15:17:05;;;;;;;7.78;6.40;;;;;;;;;;8288172;28;20369;-91
2022/07/05 15:21:10;;;;;;;15.35;6.20;;;;;;;;;;8294341;28;20157;-88
2022/07/05 15:25:16;;;;;;;9.27;5.55;;;;;;;;;;8300313;28;20063;-92
2022/07/05 15:29:20;;;;;;;6.85;4.57;;;;;;;;;;8330099;28;20054;-88
2022/07/05 15:33:36;;;;;;;8.85;4.80;;;;;;;;;;8327603;28;20413;-89
2022/07/05 15:37:51;;;;;;;7.72;5.03;;;;;;;;;;8326627;28;20053;-90
2022/07/05 15:41:54;;;;;;;7.13;5.20;;;;;;;;;;8324622;28;20080;-87
2022/07/05 15:46:13;;;;;;;7.80;5.53;;;;;;;;;;8327498;28;20053;-88
2022/07/05 15:50:53;;;;;;;13.02;8.77;;;;;;;;;;8326211;28;20048;-92
2022/07/05 15:55:51;;;;;;;14.68;9.68;;;;;;;;;;8326580;28;20418;-89
2022/07/05 16:00:00;;;;;;;10.38;7.45;;;;;;;;;;8326273;28;20053;-89
2022/07/05 16:04:07;;;;;;;11.75;7.80;;;;;;;;;;8327024;28;20084;-87
2022/07/05 16:08:16;;;;;;;12.65;6.90;;;;;;;;;;8327528;28;20140;-89
2022/07/05 16:12:25;;;;;;;14.98;7.72;;;;;;;;;;8326104;28;20045;-90
2022/07/05 16:16:29;;;;;;;11.48;6.70;;;;;;;;;;8327343;28;20045;-88
2022/07/05 16:20:34;;;;;;;9.90;6.90;;;;;;;;;;8324125;28;20037;-93
2022/07/05 16:24:40;;;;;;;8.95;6.10;;;;;;;;;;8325174;28;20076;-87
2022/07/05 16:28:54;;;;;;;8.27;6.35;;;;;;;;;;8326135;28;20397;-87
2022/07/05 16:33:03;;;;;;;8.13;6.13;;;;;;;;;;8323601;28;20436;-86
2022/07/05 16:37:12;;;;;;;6.68;5.53;;;;;;;;;;8326239;28;20044;-85
2022/07/05 16:41:18;;;;;;;7.53;5.85;;;;;;;;;;8325600;28;20055;-87
2022/07/05 16:45:23;;;;;;;7.95;5.65;;;;;;;;;;8325293;28;20045;-90
2022/07/05 16:49:27;;;;;;;7.18;5.78;;;;;;;;;;8326295;28;20053;-87
2022/07/05 16:53:32;;;;;;;6.97;5.28;;;;;;;;;;8325010;28;20072;-85
2022/07/05 16:57:36;;;;;;;10.88;7.68;;;;;;;;;;8326583;28;20547;-84
2022/07/05 17:01:39;;;;;;;6.43;5.20;;;;;;;;;;8326308;28;20038;-87
2022/07/05 17:05:42;;;;;;;6.22;5.57;;;;;;;;;;8326702;28;20124;-85
2022/07/05 17:09:46;;;;;;;7.70;6.18;;;;;;;;;;8326933;28;20195;-87
2022/07/05 17:13:53;;;;;;;7.85;6.10;;;;;;;;;;8326269;28;20091;-86
2022/07/05 17:17:56;;;;;;;7.18;5.55;;;;;;;;;;8326529;28;20049;-86
2022/07/05 17:21:59;;;;;;;6.22;5.30;;;;;;;;;;8325286;28;20053;-86
2022/07/05 17:26:02;;;;;;;6.20;5.03;;;;;;;;;;8319710;28;20045;-85
2022/07/05 17:30:08;;;;;;;7.57;5.93;;;;;;;;;;8318934;28;20055;-85
2022/07/05 17:34:12;;;;;;;6.70;5.55;;;;;;;;;;8325661;28;20406;-85
2022/07/05 17:38:15;;;;;;;8.25;5.65;;;;;;;;;;8324692;28;20132;-84
2022/07/05 17:42:18;;;;;;;7.28;6.10;;;;;;;;;;8325150;28;20049;-87
2022/07/05 17:46:24;;;;;;;6.43;5.55;;;;;;;;;;8325475;28;20053;-87
2022/07/05 17:50:27;;;;;;;7.05;6.20;;;;;;;;;;8325710;28;20053;-87
2022/07/05 17:54:31;;;;;;;8.38;6.10;;;;;;;;;;8319432;28;20057;-87
2022/07/05 17:58:34;;;;;;;7.82;6.50;;;;;;;;;;8325086;28;20046;-86
2022/07/05 18:02:39;;;;;;;7.28;6.55;;;;;;;;;;8325059;28;20057;-85
2022/07/05 18:06:42;;;;;;;12.32;8.23;;;;;;;;;;8325273;28;20049;-86
2022/07/05 18:10:46;;;;;;;9.65;7.25;;;;;;;;;;8323188;28;20128;-89
2022/07/05 18:14:49;;;;;;;7.53;6.10;;;;;;;;;;8326993;28;20033;-89
2022/07/05 18:18:54;;;;;;;10.20;7.47;;;;;;;;;;8323560;28;20405;-85
2022/07/05 18:22:57;;;;;;;7.72;6.43;;;;;;;;;;8328050;28;20052;-87
2022/07/05 18:27:00;;;;;;;8.82;6.43;;;;;;;;;;8329752;28;20421;-86
2022/07/05 18:31:04;;;;;;;11.48;7.25;;;;;;;;;;8329428;28;20532;-86
2022/07/05 18:35:12;;;;;;;11.40;7.85;;;;;;;;;;8327851;28;20543;-85
2022/07/05 18:39:48;;;;;;;14.93;7.05;;;;;;;;;;8326455;28;20041;-87
2022/07/05 18:48:43;;;;;;;7.88;6.57;;;;;;;;;;8327026;28;20084;-87
2022/07/05 18:52:49;;;;;;;11.63;7.30;;;;;;;;;;8330984;28;20045;-88
2022/07/05 18:56:53;;;;;;;11.88;7.65;;;;;;;;;;8336225;28;20049;-88
2022/07/05 19:00:59;;;;;;;9.27;6.88;;;;;;;;;;8336383;28;20485;-86
2022/07/05 19:05:14;;;;;;;9.70;6.97;;;;;;;;;;8337650;28;20103;-90
2022/07/05 19:13:52;;;;;;;10.73;7.75;;;;;;;;;;8333642;28;20050;-89
2022/07/05 19:18:00;;;;;;;12.27;7.03;;;;;;;;;;8335228;28;20547;-86
2022/07/05 19:22:06;;;;;;;10.15;6.57;;;;;;;;;;8335203;28;20120;-87
2022/07/05 19:26:12;;;;;;;9.68;7.00;;;;;;;;;;8334896;28;20048;-87
2022/07/05 19:30:15;;;;;;;8.35;6.65;;;;;;;;;;8334674;28;20128;-86
2022/07/05 19:34:19;;;;;;;8.45;6.97;;;;;;;;;;8334486;28;20049;-87
2022/07/05 19:38:28;;;;;;;10.55;7.72;;;;;;;;;;8334598;28;20068;-88
2022/07/05 19:42:34;;;;;;;11.45;7.35;;;;;;;;;;8334332;28;20080;-87
2022/07/05 19:47:06;;;;;;;9.27;7.88;;;;;;;;;;8334155;28;20053;-87
2022/07/05 19:51:41;;;;;;;10.35;7.25;;;;;;;;;;8333792;28;20057;-87
2022/07/05 19:55:45;;;;;;;;;;;;;;;;;;8331625;28;20104;-89
2022/07/05 20:00:06;;;;;;;14.85;8.73;;;;;;;;;;8333948;28;20388;-90
2022/07/05 20:04:12;;;;;;;11.25;8.45;;;;;;;;;;8332284;28;20057;-92
2022/07/05 20:08:30;;;;;;;10.80;7.22;;;;;;;;;;8333601;28;20104;-91
2022/07/05 20:12:39;;;;;;;11.30;7.30;;;;;;;;;;8327080;28;20057;-88
2022/07/05 20:17:01;;;;;;;8.35;6.57;;;;;;;;;;8328496;28;20048;-92
2022/07/05 20:21:12;;;;;;;10.90;7.18;;;;;;;;;;8327410;28;20124;-91
2022/07/05 20:25:22;;;;;;;10.70;7.38;;;;;;;;;;8332845;28;20049;-93
2022/07/05 20:29:28;;;;;;;11.32;7.00;;;;;;;;;;8332666;28;20382;-92
2022/07/05 20:33:33;;;;;;;8.65;6.63;;;;;;;;;;8332812;28;20132;-91
2022/07/05 20:37:36;;;;;;;10.35;7.65;;;;;;;;;;8332869;28;20124;-91
2022/07/05 20:41:39;;;;;;;10.35;7.35;;;;;;;;;;8332793;28;20049;-93
2022/07/05 20:45:43;;;;;;;13.27;8.02;;;;;;;;;;8332847;28;20128;-91
2022/07/05 20:49:48;;;;;;;11.35;7.00;;;;;;;;;;8332586;28;20497;-91
2022/07/05 20:53:53;;;;;;;9.63;7.88;;;;;;;;;;8332359;28;20049;-90
2022/07/05 20:57:58;;;;;;;7.97;7.07;;;;;;;;;;8332025;28;20405;-90
2022/07/05 21:02:01;;;;;;;9.75;7.68;;;;;;;;;;8332021;28;20075;-88
2022/07/05 21:06:06;;;;;;;10.95;6.97;;;;;;;;;;8333327;28;20053;-92
2022/07/05 21:10:11;;;;;;;11.35;7.60;;;;;;;;;;8331869;28;20041;-91
2022/07/05 21:14:15;;;;;;;8.40;7.00;;;;;;;;;;8331967;28;20041;-89
2022/07/05 21:18:18;;;;;;;9.60;7.03;;;;;;;;;;8331293;28;20052;-89
2022/07/05 21:22:26;;;;;;;10.02;7.32;;;;;;;;;;8331577;28;20038;-88
2022/07/05 21:26:35;;;;;;;9.45;7.45;;;;;;;;;;8331139;28;20421;-88
2022/07/05 21:30:38;;;;;;;9.40;7.03;;;;;;;;;;8331458;28;20056;-89
2022/07/05 21:34:41;;;;;;;9.85;7.10;;;;;;;;;;8331126;28;20041;-91
2022/07/05 21:38:46;;;;;;;8.07;6.57;;;;;;;;;;8331129;28;20402;-90
2022/07/05 21:42:49;;;;;;;8.25;5.88;;;;;;;;;;8330878;28;20041;-91
2022/07/05 21:46:52;;;;;;;9.65;5.45;;;;;;;;;;8331310;28;20053;-90
2022/07/05 21:50:54;;;;;;;7.22;5.78;;;;;;;;;;8326022;28;20453;-90
2022/07/05 21:54:59;;;;;;;7.68;6.07;;;;;;;;;;8330667;28;20091;-90
2022/07/05 22:07:47;;;;;;;8.07;6.63;;;;;;;;;;8330799;28;20052;-92
2022/07/05 22:11:51;;;;;;;10.70;6.60;;;;;;;;;;8330431;28;20124;-92
2022/07/05 22:15:53;;;;;;;9.23;6.50;;;;;;;;;;8330050;28;20056;-93
2022/07/05 22:19:56;;;;;;;7.45;6.20;;;;;;;;;;8330318;28;20049;-90
2022/07/05 22:23:59;;;;;;;8.02;6.50;;;;;;;;;;8330231;28;20095;-90
2022/07/05 22:28:03;;;;;;;7.95;5.88;;;;;;;;;;8331607;28;20045;-90
2022/07/05 22:32:06;;;;;;;9.27;6.47;;;;;;;;;;8336656;28;20045;-91
2022/07/05 22:36:11;;;;;;;9.52;7.10;;;;;;;;;;8336582;28;20049;-91
2022/07/05 22:40:13;;;;;;;12.32;8.07;;;;;;;;;;8336326;28;20482;-90
2022/07/05 22:44:18;;;;;;;10.88;7.75;;;;;;;;;;8336229;28;20136;-91
2022/07/05 22:48:20;;;;;;;11.18;7.90;;;;;;;;;;8336320;28;20045;-91
2022/07/05 22:52:23;;;;;;;12.60;7.32;;;;;;;;;;8336460;28;20045;-92
2022/07/05 22:56:25;;;;;;;10.18;6.90;;;;;;;;;;8334287;28;20049;-91
2022/07/05 23:00:30;;;;;;;9.23;7.25;;;;;;;;;;8336368;28;20497;-91
2022/07/05 23:04:32;;;;;;;8.48;7.43;;;;;;;;;;8335466;28;20053;-90
2022/07/05 23:08:37;;;;;;;8.20;6.70;;;;;;;;;;8335728;28;20049;-91
2022/07/05 23:12:39;;;;;;;9.77;7.30;;;;;;;;;;8335443;28;20124;-92
2022/07/05 23:16:43;;;;;;;10.25;7.80;;;;;;;;;;8335407;28;20049;-91
2022/07/05 23:20:46;;;;;;;11.55;6.90;;;;;;;;;;8335240;28;20042;-92
2022/07/05 23:24:57;;;;;;;10.70;7.28;;;;;;;;;;8334336;28;20529;-91
2022/07/05 23:29:00;;;;;;;11.38;6.70;;;;;;;;;;8333579;28;20060;-89
2022/07/05 23:33:04;;;;;;;10.30;6.72;;;;;;;;;;8333216;28;20497;-90
2022/07/05 23:37:07;;;;;;;10.02;6.78;;;;;;;;;;8332926;28;20067;-89
2022/07/05 23:41:09;;;;;;;9.55;6.80;;;;;;;;;;8332585;28;20150;-90
2022/07/05 23:45:12;;;;;;;7.28;6.00;;;;;;;;;;8330340;28;20496;-90
2022/07/05 23:49:16;;;;;;;9.10;7.03;;;;;;;;;;8331987;28;20046;-94
2022/07/05 23:53:20;;;;;;;10.35;6.85;;;;;;;;;;8330983;28;20124;-90
2022/07/05 23:57:24;;;;;;;9.68;6.95;;;;;;;;;;8333064;28;20042;-90
